createdAt,value
2023-01-29T00:00:39.166Z,66.60
2023-01-29T00:03:06.910Z,61.30
2023-01-29T00:08:06.663Z,60.85
2023-01-29T00:10:36.415Z,60.05
2023-01-29T00:13:05.602Z,66.03
2023-01-29T00:15:33.549Z,62.10
2023-01-29T00:18:02.179Z,63.60
2023-01-29T00:20:29.520Z,65.28
2023-01-29T00:22:58.393Z,60.60
2023-01-29T00:25:28.327Z,55.28
2023-01-29T00:27:57.680Z,57.95
2023-01-29T00:30:24.731Z,51.17
2023-01-29T00:32:52.768Z,52.30
2023-01-29T00:35:21.229Z,53.17
2023-01-29T00:37:49.281Z,53.88
2023-01-29T00:40:19.976Z,52.30
2023-01-29T00:43:07.059Z,53.20
2023-01-29T00:48:07.611Z,52.05
2023-01-29T00:50:36.766Z,51.67
2023-01-29T00:53:03.572Z,41.13
2023-01-29T00:55:34.125Z,45.20
2023-01-29T00:58:03.134Z,48.20
2023-01-29T01:00:30.674Z,45.30
2023-01-29T01:03:06.086Z,48.53
2023-01-29T01:05:35.254Z,43.83
2023-01-29T01:08:25.186Z,42.50
2023-01-29T01:10:59.329Z,44.03
2023-01-29T01:13:26.743Z,40.38
2023-01-29T01:15:56.428Z,37.78
2023-01-29T01:18:23.820Z,36.47
2023-01-29T01:20:51.912Z,35.05
2023-01-29T01:23:20.000Z,41.95
2023-01-29T01:25:48.154Z,38.45
2023-01-29T01:28:17.528Z,39.63
2023-01-29T01:30:45.516Z,44.25
2023-01-29T01:33:13.414Z,39.72
2023-01-29T01:38:12.608Z,42.45
2023-01-29T01:40:47.001Z,54.28
2023-01-29T01:43:15.629Z,45.67
2023-01-29T01:45:44.359Z,52.50
2023-01-29T01:48:25.895Z,49.63
2023-01-29T01:51:06.193Z,47.00
2023-01-29T01:53:53.043Z,48.00
2023-01-29T01:56:26.283Z,48.78
2023-01-29T01:59:00.467Z,47.60
2023-01-29T02:01:30.860Z,47.47
2023-01-29T02:04:26.198Z,49.13
2023-01-29T02:07:15.209Z,47.70
2023-01-29T02:09:51.898Z,45.53
2023-01-29T02:12:23.633Z,48.72
2023-01-29T02:14:52.672Z,46.90
2023-01-29T02:17:23.904Z,46.92
2023-01-29T02:20:15.088Z,50.25
2023-01-29T02:23:01.071Z,46.05
2023-01-29T02:25:53.687Z,47.53
2023-01-29T02:29:22.913Z,51.28
2023-01-29T02:32:19.798Z,45.58
2023-01-29T02:35:09.948Z,50.78
2023-01-29T02:37:45.694Z,49.95
2023-01-29T02:40:53.209Z,49.42
2023-01-29T02:43:41.529Z,52.88
2023-01-29T02:46:20.695Z,50.45
2023-01-29T02:49:05.677Z,46.90
2023-01-29T02:51:43.560Z,47.55
2023-01-29T02:54:43.832Z,46.55
2023-01-29T02:57:30.735Z,48.05
2023-01-29T03:00:03.104Z,49.13
2023-01-29T03:02:39.548Z,48.58
2023-01-29T03:05:15.352Z,45.47
2023-01-29T03:07:54.356Z,47.63
2023-01-29T03:10:53.810Z,47.50
2023-01-29T03:13:43.893Z,44.92
2023-01-29T03:16:39.905Z,49.95
2023-01-29T03:19:20.046Z,43.45
2023-01-29T03:21:55.180Z,40.55
2023-01-29T03:25:24.932Z,39.25
2023-01-29T03:28:17.630Z,38.08
2023-01-29T03:31:18.785Z,41.05
2023-01-29T03:34:05.420Z,39.58
2023-01-29T03:36:49.228Z,39.33
2023-01-29T03:39:20.517Z,40.30
2023-01-29T03:41:59.203Z,46.20
2023-01-29T03:44:36.760Z,42.30
2023-01-29T03:47:43.111Z,43.15
2023-01-29T03:50:40.034Z,46.28
2023-01-29T03:53:27.021Z,41.63
2023-01-29T03:56:02.323Z,38.55
2023-01-29T03:58:45.299Z,40.67
2023-01-29T04:01:24.676Z,38.40
2023-01-29T04:04:05.982Z,31.27
2023-01-29T04:06:40.565Z,38.08
2023-01-29T04:09:37.233Z,44.83
2023-01-29T04:12:09.417Z,40.90
2023-01-29T04:14:42.386Z,35.15
2023-01-29T04:17:28.452Z,37.88
2023-01-29T04:20:05.601Z,37.00
2023-01-29T04:22:38.777Z,41.65
2023-01-29T04:25:27.711Z,43.92
2023-01-29T04:28:01.827Z,42.20
2023-01-29T04:30:38.021Z,42.45
2023-01-29T04:33:26.380Z,37.80
2023-01-29T04:36:09.833Z,44.60
2023-01-29T04:38:55.174Z,41.00
2023-01-29T04:41:37.544Z,37.10
2023-01-29T04:44:33.416Z,28.70
2023-01-29T04:47:33.868Z,46.75
2023-01-29T04:50:25.594Z,40.80
2023-01-29T04:53:04.696Z,37.40
2023-01-29T04:55:47.752Z,39.67
2023-01-29T04:58:32.168Z,45.42
2023-01-29T05:01:07.249Z,27.77
2023-01-29T05:03:37.914Z,38.65
2023-01-29T05:06:10.154Z,44.25
2023-01-29T05:08:39.244Z,40.42
2023-01-29T05:11:09.484Z,31.83
2023-01-29T05:13:43.079Z,40.35
2023-01-29T05:16:54.561Z,45.28
2023-01-29T05:19:24.747Z,36.47
2023-01-29T05:21:53.231Z,41.17
2023-01-29T05:24:26.049Z,42.58
2023-01-29T05:27:13.671Z,41.55
2023-01-29T05:29:45.659Z,43.58
2023-01-29T05:32:13.012Z,40.55
2023-01-29T05:34:41.967Z,42.42
2023-01-29T05:37:11.173Z,40.85
2023-01-29T05:39:42.547Z,45.08
2023-01-29T05:42:11.226Z,39.45
2023-01-29T05:47:07.600Z,45.40
2023-01-29T05:49:38.686Z,44.78
2023-01-29T05:52:06.693Z,43.65
2023-01-29T05:57:01.235Z,38.80
2023-01-29T05:59:31.171Z,56.67
2023-01-29T06:02:00.181Z,50.03
2023-01-29T06:04:27.760Z,59.35
2023-01-29T06:06:59.616Z,56.17
2023-01-29T06:09:31.623Z,46.85
2023-01-29T06:11:59.540Z,47.30
2023-01-29T06:14:28.792Z,49.28
2023-01-29T06:16:56.040Z,38.53
2023-01-29T06:19:24.032Z,37.53
2023-01-29T06:24:22.714Z,38.45
2023-01-29T06:26:49.716Z,43.60
2023-01-29T06:29:18.789Z,45.70
2023-01-29T06:31:47.930Z,47.38
2023-01-29T06:34:16.521Z,32.17
2023-01-29T06:36:43.748Z,46.47
2023-01-29T06:39:11.710Z,42.13
2023-01-29T06:41:39.956Z,43.25
2023-01-29T06:44:07.297Z,43.72
2023-01-29T06:46:34.678Z,42.17
2023-01-29T06:49:02.270Z,47.38
2023-01-29T06:51:30.497Z,38.22
2023-01-29T06:53:58.621Z,38.53
2023-01-29T06:56:27.667Z,38.42
2023-01-29T06:58:54.559Z,39.65
2023-01-29T07:01:35.219Z,29.10
2023-01-29T07:04:04.999Z,39.10
2023-01-29T07:06:33.349Z,40.45
2023-01-29T07:09:01.716Z,39.72
2023-01-29T07:11:35.775Z,40.40
2023-01-29T07:14:04.795Z,41.25
2023-01-29T07:16:33.238Z,44.13
2023-01-29T07:19:04.398Z,39.85
2023-01-29T07:21:32.690Z,44.55
2023-01-29T07:24:01.450Z,43.35
2023-01-29T07:26:30.906Z,44.75
2023-01-29T07:28:58.122Z,45.08
2023-01-29T07:31:26.259Z,43.30
2023-01-29T07:33:55.904Z,42.15
2023-01-29T07:36:24.265Z,44.20
2023-01-29T07:38:53.404Z,40.47
2023-01-29T07:41:22.197Z,45.45
2023-01-29T07:43:50.851Z,45.88
2023-01-29T07:46:18.939Z,51.78
2023-01-29T07:48:50.309Z,52.97
2023-01-29T07:51:18.500Z,48.40
2023-01-29T07:53:46.071Z,43.30
2023-01-29T07:56:13.917Z,46.90
2023-01-29T08:01:09.887Z,42.92
2023-01-29T08:03:37.891Z,44.00
2023-01-29T08:06:06.808Z,45.67
2023-01-29T08:08:35.712Z,65.00
2023-01-29T08:11:07.265Z,53.63
2023-01-29T08:13:36.140Z,51.78
2023-01-29T08:16:04.131Z,44.92
2023-01-29T08:21:01.990Z,35.80
2023-01-29T08:23:30.982Z,41.88
2023-01-29T08:26:01.541Z,33.53
2023-01-29T08:28:28.896Z,41.40
2023-01-29T08:30:57.319Z,38.75
2023-01-29T08:33:38.790Z,42.15
2023-01-29T08:36:07.024Z,41.42
2023-01-29T08:38:34.149Z,39.60
2023-01-29T08:41:03.747Z,39.70
2023-01-29T08:43:30.679Z,34.50
2023-01-29T08:46:01.584Z,50.55
2023-01-29T08:48:32.960Z,39.67
2023-01-29T08:51:01.548Z,38.65
2023-01-29T08:53:29.664Z,36.20
2023-01-29T08:55:57.084Z,37.15
2023-01-29T08:58:25.673Z,40.95
2023-01-29T09:00:56.088Z,39.45
2023-01-29T09:03:23.044Z,48.78
2023-01-29T09:05:50.041Z,44.75
2023-01-29T09:08:18.376Z,46.20
2023-01-29T09:10:48.071Z,40.65
2023-01-29T09:13:18.215Z,44.42
2023-01-29T09:15:52.929Z,35.58
2023-01-29T09:18:22.385Z,43.72
2023-01-29T09:20:50.939Z,35.88
2023-01-29T09:23:22.652Z,35.92
2023-01-29T09:25:54.041Z,43.47
2023-01-29T09:28:23.375Z,47.85
2023-01-29T09:30:50.911Z,56.83
2023-01-29T09:33:19.589Z,47.22
2023-01-29T09:35:48.832Z,42.13
2023-01-29T09:38:16.224Z,45.20
2023-01-29T09:41:06.704Z,50.33
2023-01-29T09:43:41.068Z,39.80
2023-01-29T09:46:43.510Z,29.02
2023-01-29T09:49:28.568Z,38.08
2023-01-29T09:52:07.979Z,39.60
2023-01-29T09:54:45.640Z,28.73
2023-01-29T09:57:32.269Z,37.03
2023-01-29T10:00:01.416Z,32.85
2023-01-29T10:03:08.786Z,31.52
2023-01-29T10:05:48.914Z,26.60
2023-01-29T10:08:43.319Z,21.05
2023-01-29T10:11:38.489Z,30.58
2023-01-29T10:14:21.051Z,16.83
2023-01-29T10:17:15.701Z,29.95
2023-01-29T10:20:06.154Z,31.33
2023-01-29T10:22:57.203Z,26.05
2023-01-29T10:25:24.129Z,29.13
2023-01-29T10:27:59.032Z,29.85
2023-01-29T10:30:34.108Z,23.88
2023-01-29T10:33:06.642Z,22.35
2023-01-29T10:35:41.849Z,25.02
2023-01-29T10:38:31.375Z,22.58
2023-01-29T10:41:04.755Z,25.10
2023-01-29T10:43:50.826Z,19.27
2023-01-29T10:46:51.055Z,21.45
2023-01-29T10:49:40.679Z,18.80
2023-01-29T10:52:41.915Z,18.77
2023-01-29T10:55:30.741Z,24.67
2023-01-29T10:58:37.133Z,21.70
2023-01-29T11:01:04.206Z,31.53
2023-01-29T11:03:36.962Z,30.27
2023-01-29T11:06:26.814Z,21.83
2023-01-29T11:09:25.059Z,19.42
2023-01-29T11:12:05.041Z,19.60
2023-01-29T11:14:38.164Z,23.88
2023-01-29T11:17:07.087Z,25.60
2023-01-29T11:19:43.014Z,25.40
2023-01-29T11:22:28.074Z,17.77
2023-01-29T11:25:19.639Z,26.02
2023-01-29T11:28:02.420Z,24.52
2023-01-29T11:30:38.864Z,28.38
2023-01-29T11:33:24.397Z,20.63
2023-01-29T11:35:59.911Z,30.40
2023-01-29T11:38:31.886Z,16.33
2023-01-29T11:41:19.816Z,18.95
2023-01-29T11:43:49.821Z,22.92
2023-01-29T11:46:20.004Z,22.20
2023-01-29T11:48:59.379Z,21.67
2023-01-29T11:51:38.419Z,21.55
2023-01-29T11:54:11.881Z,28.50
2023-01-29T11:56:47.039Z,19.13
2023-01-29T11:59:38.352Z,29.90
2023-01-29T12:02:18.768Z,22.95
2023-01-29T12:04:47.586Z,20.75
2023-01-29T12:07:18.098Z,32.92
2023-01-29T12:09:55.915Z,28.83
2023-01-29T12:12:35.323Z,19.70
2023-01-29T12:15:29.556Z,24.60
2023-01-29T12:18:23.043Z,20.55
2023-01-29T12:20:58.816Z,28.50
2023-01-29T12:23:49.732Z,27.23
2023-01-29T12:26:37.204Z,29.63
2023-01-29T12:29:31.846Z,29.42
2023-01-29T12:32:17.167Z,33.35
2023-01-29T12:35:01.878Z,27.60
2023-01-29T12:37:54.867Z,22.58
2023-01-29T12:40:25.198Z,27.63
2023-01-29T12:43:03.098Z,32.40
2023-01-29T12:45:32.588Z,24.75
2023-01-29T12:48:12.526Z,34.03
2023-01-29T12:50:45.583Z,27.33
2023-01-29T12:53:28.286Z,35.95
2023-01-29T12:56:05.386Z,25.45
2023-01-29T12:58:48.618Z,35.58
2023-01-29T13:01:42.850Z,36.78
2023-01-29T13:04:14.196Z,25.27
2023-01-29T13:06:51.334Z,33.45
2023-01-29T13:09:28.460Z,28.83
2023-01-29T13:12:13.064Z,34.97
2023-01-29T13:15:23.558Z,30.08
2023-01-29T13:17:59.691Z,37.03
2023-01-29T13:20:32.266Z,26.67
2023-01-29T13:23:20.865Z,27.08
2023-01-29T13:25:53.833Z,26.15
2023-01-29T13:28:24.531Z,33.30
2023-01-29T13:31:30.287Z,27.58
2023-01-29T13:34:36.811Z,20.92
2023-01-29T13:37:12.372Z,29.08
2023-01-29T13:39:48.752Z,33.17
2023-01-29T13:42:25.577Z,26.70
2023-01-29T13:45:04.045Z,30.87
2023-01-29T13:47:34.256Z,13.70
2023-01-29T13:50:16.751Z,28.60
2023-01-29T13:52:57.631Z,38.47
2023-01-29T13:55:32.163Z,47.40
2023-01-29T13:58:07.678Z,24.20
2023-01-29T14:00:38.851Z,35.70
2023-01-29T14:03:13.831Z,28.35
2023-01-29T14:05:42.166Z,25.30
2023-01-29T14:08:12.703Z,39.33
2023-01-29T14:10:41.968Z,22.77
2023-01-29T14:13:11.601Z,32.58
2023-01-29T14:15:41.005Z,29.00
2023-01-29T14:18:20.753Z,16.67
2023-01-29T14:21:21.199Z,26.55
2023-01-29T14:23:54.620Z,27.92
2023-01-29T14:26:34.276Z,26.33
2023-01-29T14:29:08.965Z,20.35
2023-01-29T14:31:38.734Z,26.38
2023-01-29T14:34:18.932Z,25.50
2023-01-29T14:36:49.793Z,17.77
2023-01-29T14:39:50.595Z,27.08
2023-01-29T14:42:36.964Z,44.03
2023-01-29T14:45:30.196Z,25.48
2023-01-29T14:48:04.405Z,24.75
2023-01-29T14:50:32.125Z,24.65
2023-01-29T14:53:19.742Z,22.58
2023-01-29T14:56:05.435Z,25.90
2023-01-29T14:58:50.432Z,18.92
2023-01-29T15:01:30.876Z,14.95
2023-01-29T15:04:14.497Z,20.65
2023-01-29T15:06:47.695Z,22.92
2023-01-29T15:09:42.552Z,20.77
2023-01-29T15:12:32.718Z,12.15
2023-01-29T15:15:19.175Z,22.45
2023-01-29T15:18:07.143Z,20.42
2023-01-29T15:20:45.209Z,14.68
2023-01-29T15:23:33.621Z,21.77
2023-01-29T15:26:03.495Z,19.27
2023-01-29T15:28:33.620Z,21.40
2023-01-29T15:31:08.178Z,18.58
2023-01-29T15:33:40.777Z,29.73
2023-01-29T15:36:09.986Z,22.13
2023-01-29T15:38:38.625Z,21.35
2023-01-29T15:41:24.511Z,14.77
2023-01-29T15:43:58.921Z,24.80
2023-01-29T15:46:34.042Z,20.27
2023-01-29T15:49:07.339Z,22.50
2023-01-29T15:51:36.487Z,18.40
2023-01-29T15:54:10.315Z,26.75
2023-01-29T15:56:41.740Z,23.17
2023-01-29T15:59:19.840Z,18.15
2023-01-29T16:01:47.947Z,25.30
2023-01-29T16:04:26.025Z,19.00
2023-01-29T16:06:54.702Z,13.30
2023-01-29T16:09:25.347Z,17.17
2023-01-29T16:11:57.727Z,16.23
2023-01-29T16:14:27.466Z,24.98
2023-01-29T16:16:58.878Z,20.38
2023-01-29T16:19:30.561Z,25.40
2023-01-29T16:22:05.780Z,19.13
2023-01-29T16:24:39.522Z,55.15
2023-01-29T16:27:15.654Z,12.23
2023-01-29T16:29:45.626Z,22.70
2023-01-29T16:32:16.887Z,14.05
2023-01-29T16:34:48.831Z,27.95
2023-01-29T16:37:26.462Z,28.13
2023-01-29T16:39:55.523Z,52.60
2023-01-29T16:42:28.385Z,24.08
2023-01-29T16:45:05.484Z,26.00
2023-01-29T16:47:44.671Z,22.35
2023-01-29T16:50:46.249Z,25.10
2023-01-29T16:53:24.616Z,19.45
2023-01-29T16:55:52.797Z,15.45
2023-01-29T16:58:25.462Z,26.48
2023-01-29T17:00:57.155Z,15.02
2023-01-29T17:03:29.146Z,19.80
2023-01-29T17:05:57.191Z,17.40
2023-01-29T17:08:29.744Z,20.23
2023-01-29T17:10:59.765Z,27.98
2023-01-29T17:13:43.002Z,16.50
2023-01-29T17:16:26.880Z,17.92
2023-01-29T17:18:54.592Z,25.52
2023-01-29T17:21:25.115Z,15.85
2023-01-29T17:23:53.103Z,28.13
2023-01-29T17:26:23.704Z,19.17
2023-01-29T17:28:52.230Z,20.85
2023-01-29T17:31:20.558Z,21.25
2023-01-29T17:33:48.259Z,23.10
2023-01-29T17:36:22.778Z,25.23
2023-01-29T17:38:51.462Z,28.05
2023-01-29T17:41:30.484Z,27.08
2023-01-29T17:43:58.859Z,27.15
2023-01-29T17:46:29.475Z,31.23
2023-01-29T17:49:00.038Z,20.75
2023-01-29T17:51:27.348Z,17.75
2023-01-29T17:53:55.448Z,17.65
2023-01-29T17:56:28.950Z,33.00
2023-01-29T17:58:57.073Z,33.13
2023-01-29T18:01:24.535Z,34.22
2023-01-29T18:03:52.653Z,30.13
2023-01-29T18:06:28.765Z,30.95
2023-01-29T18:09:01.480Z,30.77
2023-01-29T18:11:33.939Z,30.15
2023-01-29T18:14:10.254Z,21.20
2023-01-29T18:16:45.260Z,31.88
2023-01-29T18:19:20.604Z,28.80
2023-01-29T18:21:51.381Z,33.10
2023-01-29T18:24:22.514Z,27.85
2023-01-29T18:26:51.837Z,24.70
2023-01-29T18:29:20.939Z,27.52
2023-01-29T18:31:49.921Z,27.90
2023-01-29T18:34:19.996Z,22.83
2023-01-29T18:36:48.613Z,21.08
2023-01-29T18:39:17.739Z,25.33
2023-01-29T18:41:45.283Z,21.13
2023-01-29T18:44:16.148Z,31.35
2023-01-29T18:46:46.928Z,25.75
2023-01-29T18:49:16.593Z,29.40
2023-01-29T18:51:44.025Z,21.52
2023-01-29T18:54:15.499Z,33.42
2023-01-29T18:57:06.166Z,21.08
2023-01-29T19:01:58.559Z,32.53
2023-01-29T19:04:27.824Z,35.47
2023-01-29T19:06:55.789Z,36.60
2023-01-29T19:11:52.818Z,34.13
2023-01-29T19:14:23.767Z,31.70
2023-01-29T19:16:54.398Z,28.65
2023-01-29T19:19:25.095Z,32.42
2023-01-29T19:21:54.311Z,26.83
2023-01-29T19:24:23.634Z,31.77
2023-01-29T19:26:54.761Z,25.30
2023-01-29T19:29:23.171Z,31.05
2023-01-29T19:31:52.058Z,26.50
2023-01-29T19:34:20.789Z,26.80
2023-01-29T19:36:50.128Z,17.25
2023-01-29T19:39:17.772Z,21.48
2023-01-29T19:41:45.932Z,29.20
2023-01-29T19:44:14.364Z,29.25
2023-01-29T19:46:43.446Z,24.80
2023-01-29T19:49:13.714Z,31.35
2023-01-29T19:51:43.125Z,23.95
2023-01-29T19:54:11.938Z,31.75
2023-01-29T19:56:41.705Z,22.98
2023-01-29T19:59:11.413Z,28.55
2023-01-29T20:01:38.362Z,21.65
2023-01-29T20:04:08.372Z,34.35
2023-01-29T20:06:39.337Z,21.23
2023-01-29T20:09:09.769Z,27.92
2023-01-29T20:11:36.588Z,28.20
2023-01-29T20:14:03.383Z,30.08
2023-01-29T20:16:31.492Z,29.23
2023-01-29T20:19:14.321Z,39.08
2023-01-29T20:21:45.912Z,30.20
2023-01-29T20:24:14.754Z,29.90
2023-01-29T20:26:45.954Z,26.15
2023-01-29T20:29:15.646Z,28.55
2023-01-29T20:31:45.534Z,33.42
2023-01-29T20:34:13.710Z,36.55
2023-01-29T20:36:42.359Z,34.38
2023-01-29T20:39:11.059Z,34.67
2023-01-29T20:41:41.655Z,16.23
2023-01-29T20:44:12.056Z,20.45
2023-01-29T20:46:40.678Z,26.10
2023-01-29T20:49:10.432Z,26.98
2023-01-29T20:51:39.114Z,37.72
2023-01-29T20:54:06.471Z,29.38
2023-01-29T20:56:40.176Z,36.90
2023-01-29T20:59:09.470Z,29.23
2023-01-29T21:01:38.416Z,32.15
2023-01-29T21:04:06.159Z,33.55
2023-01-29T21:06:33.307Z,31.20
2023-01-29T21:09:02.672Z,36.38
2023-01-29T21:11:31.690Z,27.80
2023-01-29T21:14:02.631Z,33.22
2023-01-29T21:16:34.613Z,31.35
2023-01-29T21:19:02.573Z,42.72
2023-01-29T21:23:58.378Z,35.90
2023-01-29T21:26:26.560Z,35.63
2023-01-29T21:28:54.977Z,34.90
2023-01-29T21:38:48.422Z,29.10
2023-01-29T21:43:43.158Z,35.65
2023-01-29T21:46:15.983Z,33.33
2023-01-29T21:48:44.207Z,26.05
2023-01-29T21:51:11.274Z,37.63
2023-01-29T21:53:38.237Z,28.85
2023-01-29T21:56:06.595Z,24.95
2023-01-29T21:58:37.160Z,40.95
2023-01-29T22:01:11.496Z,29.13
2023-01-29T22:03:51.580Z,28.90
2023-01-29T22:06:22.991Z,30.10
2023-01-29T22:08:52.753Z,21.92
2023-01-29T22:11:22.058Z,39.97
2023-01-29T22:13:50.434Z,30.33
2023-01-29T22:16:18.628Z,27.98
2023-01-29T22:18:46.216Z,26.35
2023-01-29T22:21:14.404Z,26.30
2023-01-29T22:23:42.405Z,27.25
2023-01-29T22:26:13.773Z,37.83
2023-01-29T22:28:44.334Z,29.48
2023-01-29T22:31:11.836Z,27.77
2023-01-29T22:33:40.600Z,21.02
2023-01-29T22:36:08.238Z,30.55
2023-01-29T22:38:36.948Z,34.28
2023-01-29T22:41:04.708Z,28.45
2023-01-29T22:43:33.427Z,22.17
2023-01-29T22:46:03.787Z,29.80
2023-01-29T22:48:30.851Z,26.50
2023-01-29T22:51:14.059Z,28.30
2023-01-29T22:53:56.127Z,25.23
2023-01-29T22:56:27.753Z,24.63
2023-01-29T22:58:57.242Z,28.60
2023-01-29T23:01:27.954Z,31.08
2023-01-29T23:03:58.393Z,33.42
2023-01-29T23:06:26.588Z,32.83
2023-01-29T23:08:56.137Z,27.88
2023-01-29T23:11:23.806Z,29.67
2023-01-29T23:13:55.041Z,31.83
2023-01-29T23:16:26.807Z,29.55
2023-01-29T23:18:57.230Z,30.95
2023-01-29T23:21:25.581Z,32.65
2023-01-29T23:23:59.308Z,28.10
2023-01-29T23:26:48.871Z,21.17
2023-01-29T23:29:17.382Z,38.38
2023-01-29T23:31:45.982Z,30.85
2023-01-29T23:34:14.287Z,23.83
2023-01-29T23:36:43.754Z,34.42
2023-01-29T23:39:11.367Z,26.35
2023-01-29T23:41:39.075Z,21.38
2023-01-29T23:46:51.713Z,29.75
2023-01-29T23:49:19.901Z,26.63
2023-01-29T23:51:51.198Z,22.77
2023-01-29T23:54:21.825Z,23.13
2023-01-29T23:56:52.560Z,33.15
2023-01-29T23:59:19.915Z,35.83
